Time;durP1;ratioP1;P1;durP2;ratioP2;P2;SDS_P1;SDS_P2;PMS_P1;PMS_P2;Temp;Humidity;BMP_temperature;BMP_pressure;BME280_temperature;BME280_humidity;BME280_pressure;Samples;Min_cycle;Max_cycle;Signal;HPM_P1;HPM_P2
2022/08/23 00:02:38;;;;;;;6.80;4.97;;;;;;;21.35;84.04;99992.59;5568558;32;34322;-54
2022/08/23 00:05:42;;;;;;;7.65;4.97;;;;;;;21.39;83.77;99989.94;5569643;32;33691;-54
2022/08/23 00:08:47;;;;;;;7.20;5.07;;;;;;;21.27;83.68;99990.88;5570639;32;34412;-54
2022/08/23 00:12:08;;;;;;;7.12;4.40;;;;;;;21.41;83.01;99987.66;5570946;32;33763;-54
2022/08/23 00:15:14;;;;;;;7.78;5.03;;;;;;;21.53;82.66;99987.47;5570733;32;33812;-54
2022/08/23 00:18:17;;;;;;;7.00;4.55;;;;;;;21.37;83.71;99990.31;5570848;32;33634;-54
2022/08/23 00:21:19;;;;;;;7.82;4.45;;;;;;;21.45;84.00;99983.03;5570644;32;34308;-54
2022/08/23 00:24:23;;;;;;;8.73;3.92;;;;;;;21.44;83.62;99984.19;5570933;32;34450;-54
2022/08/23 00:27:25;;;;;;;11.40;4.70;;;;;;;21.36;84.92;99986.00;5570828;32;33810;-54
2022/08/23 00:30:28;;;;;;;6.05;4.25;;;;;;;21.53;83.39;99982.03;5570635;32;34408;-54
2022/08/23 00:33:30;;;;;;;8.35;4.50;;;;;;;21.53;83.22;99980.06;5570608;32;33840;-54
2022/08/23 00:36:33;;;;;;;6.53;4.55;;;;;;;21.54;83.97;99976.19;5570527;32;34325;-55
2022/08/23 00:39:37;;;;;;;7.62;4.03;;;;;;;21.49;84.49;99979.22;5570580;32;34474;-54
2022/08/23 00:49:47;;;;;;;8.38;4.50;;;;;;;21.41;85.39;99995.81;5570233;32;33368;-54
2022/08/23 00:53:10;;;;;;;7.62;4.30;;;;;;;21.49;85.16;100000.25;5570517;32;33642;-54
2022/08/23 00:56:16;;;;;;;6.43;3.83;;;;;;;21.51;85.36;100001.47;5570392;32;34485;-55
2022/08/23 00:59:18;;;;;;;12.10;4.40;;;;;;;21.52;84.48;100003.06;5570403;32;34261;-54
2022/08/23 01:02:21;;;;;;;8.40;4.62;;;;;;;21.59;83.59;100005.12;5570478;32;33802;-54
2022/08/23 01:05:30;;;;;;;7.10;4.15;;;;;;;21.55;83.06;100006.97;5570359;32;33706;-54
2022/08/23 01:08:34;;;;;;;4.60;3.75;;;;;;;21.61;83.53;100010.19;5570293;32;33625;-54
2022/08/23 01:11:46;;;;;;;5.53;3.65;;;;;;;21.58;82.82;100009.75;5570276;32;33683;-54
2022/08/23 01:15:07;;;;;;;4.97;3.55;;;;;;;21.51;83.49;100015.09;5570378;32;34434;-54
2022/08/23 01:18:14;;;;;;;7.47;3.70;;;;;;;21.38;83.94;100019.13;5569675;32;33686;-54
2022/08/23 01:21:44;;;;;;;5.25;3.25;;;;;;;21.34;84.07;100021.00;5570129;32;34404;-54
2022/08/23 01:24:47;;;;;;;7.10;3.90;;;;;;;21.34;85.28;100016.34;5564415;32;33479;-55
2022/08/23 01:28:09;;;;;;;7.97;4.25;;;;;;;21.35;85.26;100017.91;5570217;32;34335;-54
2022/08/23 01:31:12;;;;;;;6.85;4.05;;;;;;;21.47;85.32;100021.66;5570114;32;34521;-54
2022/08/23 01:34:16;;;;;;;6.18;4.00;;;;;;;21.32;85.32;100029.53;5570323;32;34333;-54
2022/08/23 01:37:20;;;;;;;7.40;4.43;;;;;;;21.28;86.50;100033.34;5569958;32;34301;-54
2022/08/23 01:40:23;;;;;;;8.52;4.15;;;;;;;21.45;85.24;100034.84;5570194;31;33312;-54
2022/08/23 01:43:26;;;;;;;8.00;4.60;;;;;;;21.50;84.14;100035.34;5570156;31;33368;-54
2022/08/23 01:46:28;;;;;;;7.30;4.47;;;;;;;21.38;83.98;100035.50;5569879;31;34215;-54
2022/08/23 01:49:31;;;;;;;9.20;5.12;;;;;;;21.38;83.88;100049.12;5569901;31;34337;-54
2022/08/23 01:52:35;;;;;;;8.32;5.35;;;;;;;21.39;83.45;100045.28;5569927;31;33268;-55
2022/08/23 01:55:41;;;;;;;7.70;5.12;;;;;;;21.17;84.75;100045.97;5569878;31;33361;-54
2022/08/23 01:58:43;;;;;;;7.03;5.10;;;;;;;21.22;84.84;100048.41;5570052;32;33674;-54
2022/08/23 02:01:46;;;;;;;7.82;4.90;;;;;;;21.17;85.09;100044.03;5569954;32;33594;-54
2022/08/23 02:04:49;;;;;;;6.90;4.87;;;;;;;21.18;85.08;100042.09;5569631;31;34805;-55
2022/08/23 02:07:51;;;;;;;6.80;4.87;;;;;;;21.18;85.30;100045.59;5569924;32;34444;-54
2022/08/23 02:10:54;;;;;;;7.03;5.07;;;;;;;21.17;85.70;100045.97;5569710;31;33700;-54
2022/08/23 02:13:59;;;;;;;7.87;5.50;;;;;;;21.16;85.50;100047.91;5569896;31;33448;-54
2022/08/23 02:17:03;;;;;;;8.10;5.80;;;;;;;21.29;85.89;100045.81;5569718;31;33507;-54
2022/08/23 02:20:07;;;;;;;8.48;5.05;;;;;;;21.45;85.17;100051.19;5569802;32;33710;-54
2022/08/23 02:23:10;;;;;;;10.52;5.90;;;;;;;21.50;84.03;100051.72;5569716;31;33429;-54
2022/08/23 02:26:12;;;;;;;9.02;5.97;;;;;;;21.28;85.81;100058.66;5569777;32;34427;-54
2022/08/23 02:29:17;;;;;;;11.25;6.80;;;;;;;21.14;85.73;100063.84;5568207;32;34467;-54
2022/08/23 02:32:20;;;;;;;9.60;6.05;;;;;;;21.28;85.28;100063.31;5569609;31;33414;-54
2022/08/23 02:35:23;;;;;;;11.25;6.87;;;;;;;21.27;84.80;100059.81;5569429;32;34616;-55
2022/08/23 02:38:25;;;;;;;9.73;6.22;;;;;;;21.21;85.37;100063.97;5569565;32;34420;-54
2022/08/23 02:41:28;;;;;;;10.75;7.18;;;;;;;21.20;85.36;100062.41;5569257;31;33447;-54
2022/08/23 02:44:33;;;;;;;10.50;6.85;;;;;;;21.17;85.32;100065.06;5569386;31;33358;-54
2022/08/23 02:47:35;;;;;;;11.43;6.85;;;;;;;21.19;85.44;100070.94;5569410;31;34305;-55
2022/08/23 02:50:39;;;;;;;12.95;6.85;;;;;;;21.32;84.20;100069.62;5569375;31;33261;-54
2022/08/23 02:53:41;;;;;;;9.85;6.90;;;;;;;21.36;84.35;100084.16;5569425;32;34336;-54
2022/08/23 02:56:44;;;;;;;12.80;7.12;;;;;;;21.26;84.66;100084.72;5569194;31;33180;-54
2022/08/23 02:59:46;;;;;;;10.25;6.85;;;;;;;21.30;84.49;100085.56;5569475;32;34336;-54
2022/08/23 03:02:48;;;;;;;9.88;6.07;;;;;;;21.25;84.65;100085.84;5569219;32;34254;-54
2022/08/23 03:05:51;;;;;;;9.43;6.18;;;;;;;21.26;85.33;100087.44;5569420;32;34442;-54
2022/08/23 03:08:55;;;;;;;11.07;7.10;;;;;;;21.17;86.09;100087.66;5569165;31;33267;-54
2022/08/23 03:11:57;;;;;;;10.95;7.37;;;;;;;21.24;85.81;100087.00;5569505;32;33841;-54
2022/08/23 03:15:00;;;;;;;10.98;7.50;;;;;;;21.27;84.58;100089.81;5569217;31;33277;-54
2022/08/23 03:18:02;;;;;;;11.48;6.95;;;;;;;21.24;85.04;100093.25;5569120;31;33392;-54
2022/08/23 03:21:06;;;;;;;10.25;7.62;;;;;;;21.17;85.90;100103.22;5569081;32;34368;-54
2022/08/23 03:24:08;;;;;;;10.55;7.55;;;;;;;21.19;85.41;100101.72;5569160;31;33274;-54
2022/08/23 03:27:12;;;;;;;11.55;6.95;;;;;;;21.09;85.82;100099.53;5569043;32;33543;-54
2022/08/23 03:30:14;;;;;;;12.00;7.87;;;;;;;21.10;86.36;100103.88;5568978;32;33628;-54
2022/08/23 03:33:23;;;;;;;10.40;7.10;;;;;;;21.19;85.49;100106.34;5568872;32;33257;-54
2022/08/23 03:36:25;;;;;;;10.45;7.57;;;;;;;21.18;86.02;100105.56;5569042;32;33453;-54
2022/08/23 03:39:30;;;;;;;13.85;8.32;;;;;;;21.28;84.96;100105.00;5568338;32;33765;-54
2022/08/23 03:42:32;;;;;;;11.12;8.27;;;;;;;21.37;85.84;100113.00;5569030;31;33447;-54
2022/08/23 03:45:36;;;;;;;16.08;8.82;;;;;;;21.16;88.07;100110.63;5568910;31;33404;-54
2022/08/23 03:48:40;;;;;;;12.48;8.80;;;;;;;21.19;87.79;100111.81;5567612;32;33794;-55
2022/08/23 03:51:42;;;;;;;14.87;8.77;;;;;;;21.18;88.85;100107.50;5568579;31;34237;-54
2022/08/23 03:54:44;;;;;;;12.00;8.77;;;;;;;21.13;89.67;100111.31;5568605;32;33533;-54
2022/08/23 03:57:47;;;;;;;13.20;8.30;;;;;;;20.98;90.43;100118.41;5568362;32;33390;-54
2022/08/23 04:00:50;;;;;;;14.10;8.65;;;;;;;21.08;90.48;100123.28;5568372;31;33484;-55
2022/08/23 04:03:52;;;;;;;14.57;9.18;;;;;;;21.09;90.92;100118.63;5568435;31;34245;-54
2022/08/23 04:06:55;;;;;;;13.98;9.32;;;;;;;21.04;90.06;100133.31;5568353;31;33455;-54
2022/08/23 04:09:57;;;;;;;14.15;9.10;;;;;;;20.97;91.11;100132.37;5568050;31;34268;-54
2022/08/23 04:13:00;;;;;;;15.57;9.73;;;;;;;20.97;90.86;100138.63;5568121;32;34156;-54
2022/08/23 04:16:03;;;;;;;13.18;9.88;;;;;;;21.00;89.67;100140.66;5567997;32;33708;-54
2022/08/23 04:19:08;;;;;;;17.15;9.05;;;;;;;20.91;90.03;100145.50;5567923;32;33676;-54
2022/08/23 04:22:12;;;;;;;;;;;;;;;20.93;90.80;100145.16;5568314;31;33893;-54
2022/08/23 04:25:14;;;;;;;12.68;9.73;;;;;;;21.00;90.54;100140.66;5567827;32;34293;-54
2022/08/23 04:28:36;;;;;;;13.45;9.20;;;;;;;21.11;89.75;100133.47;5568011;32;33605;-55
2022/08/23 04:31:38;;;;;;;15.05;10.35;;;;;;;20.91;90.02;100120.19;5567980;31;33442;-54
2022/08/23 04:34:43;;;;;;;14.55;9.38;;;;;;;20.77;91.41;100126.13;5567751;32;33605;-53
2022/08/23 04:37:52;;;;;;;14.52;9.43;;;;;;;20.77;91.36;100140.53;5567432;31;34320;-54
2022/08/23 04:44:17;;;;;;;11.43;8.88;;;;;;;20.79;90.55;100143.66;5567654;32;34264;-54
2022/08/23 04:47:20;;;;;;;14.50;8.90;;;;;;;20.90;90.43;100148.59;5567472;31;33295;-54
2022/08/23 04:50:23;;;;;;;14.32;9.52;;;;;;;20.73;92.15;100152.47;5567433;31;34115;-55
2022/08/23 04:53:28;;;;;;;14.25;9.48;;;;;;;20.79;92.63;100157.28;5568864;32;33780;-54
2022/08/23 04:56:31;;;;;;;17.02;9.70;;;;;;;20.92;92.75;100160.69;5563337;31;33405;-55
2022/08/23 04:59:34;;;;;;;17.55;9.85;;;;;;;21.02;91.77;100154.69;5562809;31;34407;-54
2022/08/23 05:02:37;;;;;;;16.17;9.55;;;;;;;21.02;92.45;100168.31;5565676;32;33659;-54
2022/08/23 05:05:40;;;;;;;14.57;9.93;;;;;;;20.99;90.93;100169.06;5568855;32;33716;-55
2022/08/23 05:08:43;;;;;;;15.02;9.32;;;;;;;21.00;90.62;100172.56;5566468;32;34160;-55
2022/08/23 05:11:45;;;;;;;13.95;9.38;;;;;;;21.04;90.36;100171.47;5568401;32;34375;-54
2022/08/23 05:14:47;;;;;;;13.80;9.00;;;;;;;21.10;89.84;100174.72;5567750;32;34519;-54
2022/08/23 05:17:50;;;;;;;14.63;8.90;;;;;;;21.17;89.20;100180.34;5566874;31;34184;-54
2022/08/23 05:20:53;;;;;;;17.55;9.95;;;;;;;21.20;89.29;100167.94;5568414;32;33637;-54
2022/08/23 05:23:59;;;;;;;12.85;8.80;;;;;;;21.14;90.74;100172.87;5569863;31;33331;-54
2022/08/23 05:27:03;;;;;;;13.02;9.57;;;;;;;21.09;90.59;100171.22;5568000;31;34172;-55
2022/08/23 05:30:07;;;;;;;15.35;10.50;;;;;;;21.22;88.78;100171.06;5550827;32;33496;-54
2022/08/23 05:33:16;;;;;;;14.87;10.15;;;;;;;21.24;88.78;100177.75;5565436;31;34288;-54
2022/08/23 05:36:20;;;;;;;27.60;11.50;;;;;;;21.17;90.63;100183.06;5562538;32;33303;-54
2022/08/23 05:39:22;;;;;;;18.48;10.30;;;;;;;21.28;87.74;100183.28;5563915;32;34783;-55
2022/08/23 05:42:38;;;;;;;17.23;10.93;;;;;;;21.27;89.80;100190.66;5558883;32;34210;-55
2022/08/23 05:45:40;;;;;;;16.37;10.52;;;;;;;21.25;89.93;100192.94;5565607;31;32117;-54
2022/08/23 05:48:49;;;;;;;15.18;10.68;;;;;;;21.32;90.41;100197.78;5565560;32;34287;-55
2022/08/23 05:51:52;;;;;;;16.37;11.10;;;;;;;21.40;88.66;100205.00;5565325;31;33534;-54
2022/08/23 05:54:54;;;;;;;16.85;11.00;;;;;;;21.38;89.42;100210.00;5566791;32;33394;-54
2022/08/23 05:57:57;;;;;;;17.80;12.48;;;;;;;21.43;90.23;100220.66;5567267;32;33229;-55
2022/08/23 06:01:00;;;;;;;15.75;11.93;;;;;;;21.46;90.27;100222.66;5566710;32;34471;-54
2022/08/23 06:04:05;;;;;;;18.60;13.15;;;;;;;21.48;90.41;100214.91;5566555;31;33307;-54
2022/08/23 06:07:09;;;;;;;17.67;12.77;;;;;;;21.55;91.08;100211.53;5562751;32;33819;-54
2022/08/23 06:10:12;;;;;;;17.58;13.18;;;;;;;21.50;91.45;100225.47;5566554;31;33402;-54
2022/08/23 06:13:17;;;;;;;18.20;13.43;;;;;;;21.63;87.64;100226.91;5568465;31;34439;-54
2022/08/23 06:16:25;;;;;;;19.17;13.65;;;;;;;21.61;89.28;100240.09;5563544;32;34366;-54
2022/08/23 06:19:27;;;;;;;17.15;13.82;;;;;;;21.64;89.86;100236.66;5553899;32;33436;-54
2022/08/23 06:22:31;;;;;;;17.75;14.48;;;;;;;21.71;88.60;100239.53;5566381;31;35041;-54
2022/08/23 06:25:37;;;;;;;20.40;15.57;;;;;;;21.70;87.17;100237.97;5564504;31;34484;-54
2022/08/23 06:28:42;;;;;;;19.87;15.32;;;;;;;21.68;88.41;100240.25;5568575;31;34446;-54
2022/08/23 06:31:52;;;;;;;21.87;14.63;;;;;;;21.65;89.14;100251.88;5560197;31;33310;-54
2022/08/23 06:34:56;;;;;;;22.20;14.95;;;;;;;21.71;88.87;100249.66;5562592;31;34087;-55
2022/08/23 06:38:20;;;;;;;24.33;14.53;;;;;;;21.75;87.39;100247.78;5559580;32;33426;-54
2022/08/23 06:41:23;;;;;;;19.40;14.77;;;;;;;21.70;89.25;100248.09;5568420;32;33250;-54
2022/08/23 06:44:26;;;;;;;25.42;15.00;;;;;;;21.73;87.48;100247.37;5568505;31;33484;-54
2022/08/23 06:47:30;;;;;;;24.77;14.05;;;;;;;21.79;88.07;100251.41;5567797;31;33396;-54
2022/08/23 06:50:32;;;;;;;19.37;13.55;;;;;;;21.80;88.14;100256.50;5567351;32;34530;-54
2022/08/23 06:53:39;;;;;;;19.05;13.70;;;;;;;21.85;85.70;100257.34;5567246;32;33410;-54
2022/08/23 06:56:43;;;;;;;22.35;14.32;;;;;;;21.90;86.81;100255.13;5565479;32;33785;-54
2022/08/23 06:59:47;;;;;;;21.20;15.32;;;;;;;21.89;85.55;100261.75;5559832;32;33937;-53
2022/08/23 07:02:49;;;;;;;17.25;14.82;;;;;;;21.83;85.54;100260.44;5566298;32;33437;-54
2022/08/23 07:05:56;;;;;;;16.60;13.15;;;;;;;21.93;86.14;100259.88;5565284;32;33534;-54
2022/08/23 07:08:59;;;;;;;19.17;13.90;;;;;;;21.96;86.02;100263.81;5567302;32;34310;-53
2022/08/23 07:12:02;;;;;;;16.05;13.32;;;;;;;22.01;85.32;100264.31;5558495;31;33317;-54
2022/08/23 07:15:05;;;;;;;15.73;12.35;;;;;;;22.04;86.52;100265.53;5561108;31;33305;-54
2022/08/23 07:18:07;;;;;;;22.02;14.00;;;;;;;22.18;83.46;100267.78;5557739;31;33497;-55
2022/08/23 07:21:15;;;;;;;15.63;12.55;;;;;;;22.31;83.44;100277.37;5557546;32;34424;-54
2022/08/23 07:24:20;;;;;;;15.05;11.88;;;;;;;22.36;81.70;100279.03;5548825;32;33478;-54
2022/08/23 07:27:23;;;;;;;14.80;11.73;;;;;;;22.48;81.77;100273.38;5549186;32;34374;-54
2022/08/23 07:30:26;;;;;;;19.02;12.52;;;;;;;22.59;80.49;100279.06;5551289;32;33307;-54
2022/08/23 07:33:28;;;;;;;15.60;13.20;;;;;;;22.69;80.32;100273.78;5552793;32;33511;-54
2022/08/23 07:36:33;;;;;;;16.05;12.90;;;;;;;22.61;79.30;100269.31;5550740;32;34326;-54
2022/08/23 07:39:35;;;;;;;17.27;11.95;;;;;;;22.48;79.02;100279.66;5568574;31;34141;-54
2022/08/23 07:42:42;;;;;;;18.87;11.32;;;;;;;22.55;78.50;100278.19;5568218;31;32697;-54
2022/08/23 07:45:47;;;;;;;15.00;11.68;;;;;;;22.86;77.39;100280.69;5568151;32;33500;-54
2022/08/23 07:48:51;;;;;;;17.62;11.12;;;;;;;22.91;76.91;100280.41;5568078;31;33328;-54
2022/08/23 07:51:57;;;;;;;15.43;10.77;;;;;;;22.85;77.45;100287.31;5568296;31;33508;-55
2022/08/23 07:55:00;;;;;;;16.17;12.27;;;;;;;22.85;77.56;100290.06;5568121;31;33294;-57
2022/08/23 07:58:03;;;;;;;15.48;11.12;;;;;;;22.90;77.83;100288.94;5568084;31;33765;-56
2022/08/23 08:01:20;;;;;;;23.48;12.55;;;;;;;22.90;78.68;100291.69;5567892;32;34403;-57
2022/08/23 08:04:23;;;;;;;16.62;12.77;;;;;;;22.93;77.17;100288.25;5568344;31;34245;-57
2022/08/23 08:07:26;;;;;;;14.82;11.80;;;;;;;22.99;78.38;100275.84;5567709;32;33497;-57
2022/08/23 08:10:35;;;;;;;15.75;12.88;;;;;;;23.07;77.83;100276.75;5567941;31;34564;-57
2022/08/23 08:13:42;;;;;;;16.67;13.57;;;;;;;23.06;77.29;100281.44;5568070;32;34577;-56
2022/08/23 08:16:47;;;;;;;25.27;13.55;;;;;;;23.04;75.42;100280.22;5567800;32;33620;-57
2022/08/23 08:19:50;;;;;;;16.85;13.10;;;;;;;23.02;77.23;100277.84;5567665;31;33706;-57
2022/08/23 08:22:59;;;;;;;18.77;11.75;;;;;;;22.94;76.34;100284.34;5567457;32;33448;-57
2022/08/23 08:26:06;;;;;;;17.05;10.60;;;;;;;22.94;78.08;100279.66;5567928;31;33324;-56
2022/08/23 08:29:10;;;;;;;13.90;10.45;;;;;;;23.12;75.48;100284.66;5570086;31;33231;-56
2022/08/23 08:32:16;;;;;;;13.73;11.52;;;;;;;23.33;75.35;100290.44;5569539;31;34431;-56
2022/08/23 08:35:19;;;;;;;19.67;11.77;;;;;;;23.34;74.81;100294.72;5569391;32;34495;-57
2022/08/23 08:38:21;;;;;;;11.25;9.95;;;;;;;23.12;74.83;100296.38;5569424;32;34217;-57
2022/08/23 08:41:50;;;;;;;13.05;10.45;;;;;;;23.22;73.84;100308.63;5563827;32;34437;-57
2022/08/23 08:45:11;;;;;;;15.13;9.63;;;;;;;23.28;71.69;100301.69;5568468;31;33803;-57
2022/08/23 08:48:21;;;;;;;16.08;8.23;;;;;;;23.35;72.52;100312.75;5567793;31;34100;-57
2022/08/23 08:51:57;;;;;;;13.55;10.65;;;;;;;23.45;74.33;100317.56;5550302;32;33467;-57
2022/08/23 08:55:23;;;;;;;13.50;10.30;;;;;;;23.72;71.49;100308.59;5566954;32;34375;-56
2022/08/23 08:58:38;;;;;;;18.27;12.63;;;;;;;23.67;69.97;100313.19;5569396;32;33490;-57
2022/08/23 09:01:41;;;;;;;14.32;9.93;;;;;;;23.49;72.14;100314.09;5569329;32;34359;-57
2022/08/23 09:04:47;;;;;;;13.60;11.57;;;;;;;23.42;72.60;100312.84;5569482;31;33784;-57
2022/08/23 09:08:23;;;;;;;15.63;11.65;;;;;;;23.42;72.12;100315.56;5569972;31;34678;-57
2022/08/23 09:12:03;;;;;;;12.90;9.27;;;;;;;23.49;70.52;100323.09;5569732;32;33258;-56
2022/08/23 09:15:27;;;;;;;12.82;8.90;;;;;;;23.47;70.06;100311.72;5569998;31;33260;-57
2022/08/23 09:18:33;;;;;;;17.55;10.35;;;;;;;23.67;72.31;100305.00;5567617;31;33350;-57
2022/08/23 09:21:48;;;;;;;13.62;8.90;;;;;;;23.81;70.85;100307.16;5569341;31;34320;-56
2022/08/23 09:24:50;;;;;;;15.15;9.00;;;;;;;23.87;69.38;100308.41;5568810;31;34354;-56
2022/08/23 09:27:54;;;;;;;15.07;9.10;;;;;;;23.96;68.29;100310.06;5551949;31;32128;-57
2022/08/23 09:30:58;;;;;;;11.60;8.60;;;;;;;23.97;67.65;100311.63;5559193;32;33679;-57
2022/08/23 09:34:01;;;;;;;12.82;8.23;;;;;;;23.97;66.57;100312.41;5565487;32;33306;-57
2022/08/23 09:37:08;;;;;;;20.48;10.45;;;;;;;24.05;67.51;100313.31;5562038;31;33484;-57
2022/08/23 09:40:35;;;;;;;13.75;8.40;;;;;;;24.13;67.54;100317.69;5565635;32;34648;-56
2022/08/23 09:43:46;;;;;;;9.88;7.20;;;;;;;24.19;67.08;100318.16;5567609;31;33713;-57
2022/08/23 09:46:48;;;;;;;11.65;8.00;;;;;;;24.23;66.07;100317.03;5565321;31;33637;-57
2022/08/23 09:49:53;;;;;;;10.07;7.63;;;;;;;24.22;65.86;100314.69;5559887;32;33630;-57
2022/08/23 09:53:12;;;;;;;11.20;7.32;;;;;;;24.28;66.31;100313.97;5565994;31;33306;-57
2022/08/23 09:56:23;;;;;;;8.00;6.65;;;;;;;24.34;66.75;100304.25;5568089;31;33431;-57
2022/08/23 09:59:25;;;;;;;16.33;7.97;;;;;;;24.37;64.57;100305.44;5568035;32;33660;-57
2022/08/23 10:02:34;;;;;;;10.25;8.43;;;;;;;24.45;64.09;100309.09;5565915;32;34495;-57
2022/08/23 10:05:39;;;;;;;10.93;6.95;;;;;;;24.47;64.02;100306.72;5565838;31;34507;-57
2022/08/23 10:08:54;;;;;;;10.95;6.18;;;;;;;24.51;65.38;100310.31;5566637;31;34492;-57
2022/08/23 10:11:59;;;;;;;9.52;5.62;;;;;;;24.76;64.86;100308.59;5564739;31;33387;-57
2022/08/23 10:15:05;;;;;;;8.07;6.47;;;;;;;24.87;65.15;100305.16;5564079;31;33457;-56
2022/08/23 10:18:15;;;;;;;9.57;6.93;;;;;;;24.85;63.18;100305.53;5565184;31;33421;-57
2022/08/23 10:21:24;;;;;;;6.55;5.10;;;;;;;24.89;61.97;100308.31;5566456;31;33553;-57
2022/08/23 10:24:51;;;;;;;8.52;5.68;;;;;;;24.94;65.71;100311.50;5559417;32;34125;-57
2022/08/23 10:32:15;;;;;;;8.13;4.87;;;;;;;24.93;61.97;100311.84;5549799;32;33358;-57
2022/08/23 10:35:29;;;;;;;6.95;5.40;;;;;;;25.02;63.09;100304.09;5562341;32;33354;-57
2022/08/23 10:38:49;;;;;;;6.07;4.72;;;;;;;25.16;60.32;100309.72;5568451;31;33202;-56
2022/08/23 10:42:01;;;;;;;7.50;5.35;;;;;;;25.13;60.51;100301.47;5569132;31;34458;-57
2022/08/23 10:45:07;;;;;;;7.28;4.97;;;;;;;25.23;60.20;100309.78;5568431;32;33393;-57
2022/08/23 10:48:15;;;;;;;8.48;5.97;;;;;;;25.22;60.86;100307.41;5568800;31;33775;-57
2022/08/23 10:51:28;;;;;;;7.90;5.40;;;;;;;25.31;58.44;100305.91;5566851;31;34434;-57
2022/08/23 10:54:58;;;;;;;8.73;5.28;;;;;;;25.21;59.34;100301.16;5569084;31;33354;-57
2022/08/23 10:58:05;;;;;;;6.57;4.20;;;;;;;25.27;60.66;100304.34;5562914;32;34242;-57
2022/08/23 11:01:11;;;;;;;5.62;4.53;;;;;;;25.35;57.39;100303.19;5557998;31;33373;-57
2022/08/23 11:04:35;;;;;;;6.03;4.00;;;;;;;25.33;58.39;100302.81;5557326;32;33550;-57
2022/08/23 11:07:42;;;;;;;;;;;;;;;25.40;62.63;100304.81;5568250;32;33398;-57
2022/08/23 11:10:51;;;;;;;6.72;5.22;;;;;;;25.42;60.22;100299.72;5568478;31;33416;-57
2022/08/23 11:13:59;;;;;;;6.22;5.45;;;;;;;25.45;60.38;100302.47;5567419;31;33341;-56
2022/08/23 11:17:27;;;;;;;6.18;4.85;;;;;;;25.41;60.15;100298.94;5565571;31;33279;-57
2022/08/23 11:20:48;;;;;;;11.50;4.87;;;;;;;25.34;58.98;100298.09;5559751;32;33275;-57
2022/08/23 11:23:58;;;;;;;9.10;4.70;;;;;;;25.22;59.36;100297.22;5549570;32;34212;-57
2022/08/23 11:27:04;;;;;;;7.43;5.57;;;;;;;25.29;61.06;100301.97;5549575;32;33486;-57
2022/08/23 11:30:31;;;;;;;6.43;4.70;;;;;;;25.20;60.50;100288.59;5549568;32;33412;-57
2022/08/23 11:33:45;;;;;;;6.70;5.28;;;;;;;25.11;60.33;100296.34;5556440;32;33386;-57
2022/08/23 11:37:19;;;;;;;8.02;5.07;;;;;;;25.01;60.09;100297.06;5568680;31;34385;-57
2022/08/23 11:40:54;;;;;;;7.25;4.62;;;;;;;24.96;60.77;100292.69;5568149;32;34348;-57
2022/08/23 11:44:02;;;;;;;6.20;4.78;;;;;;;24.95;60.64;100298.56;5568681;31;33430;-57
2022/08/23 11:47:09;;;;;;;;;;;;;;;24.91;59.67;100287.56;5568461;31;34240;-57
2022/08/23 11:50:27;;;;;;;7.72;4.82;;;;;;;24.92;59.15;100291.87;5568314;32;33155;-56
2022/08/23 11:53:49;;;;;;;5.80;4.60;;;;;;;24.99;59.35;100288.41;5568323;32;34346;-57
2022/08/23 11:57:10;;;;;;;6.07;4.50;;;;;;;24.93;58.62;100282.47;5568525;32;33639;-57
2022/08/23 12:00:40;;;;;;;6.43;5.07;;;;;;;24.94;60.34;100284.06;5567776;32;34368;-57
2022/08/23 12:04:20;;;;;;;7.25;5.10;;;;;;;24.96;61.39;100289.16;5564884;32;33689;-57
2022/08/23 12:07:54;;;;;;;9.07;5.90;;;;;;;25.10;62.22;100294.78;5548787;32;33805;-56
2022/08/23 12:11:00;;;;;;;12.13;6.30;;;;;;;25.17;59.91;100289.38;5557973;32;33734;-57
2022/08/23 12:14:31;;;;;;;12.52;5.25;;;;;;;25.07;59.27;100285.34;5568578;32;33736;-56
2022/08/23 12:17:33;;;;;;;7.12;5.12;;;;;;;25.03;60.66;100295.50;5568191;32;33820;-57
2022/08/23 12:20:42;;;;;;;11.98;5.43;;;;;;;25.04;62.40;100285.31;5567406;32;34316;-56
2022/08/23 12:23:54;;;;;;;8.40;5.97;;;;;;;25.00;63.16;100293.53;5568245;32;33729;-57
2022/08/23 12:27:22;;;;;;;6.97;5.47;;;;;;;24.96;61.90;100297.41;5567699;32;34296;-57
2022/08/23 12:31:01;;;;;;;6.82;5.68;;;;;;;24.87;62.22;100296.91;5558316;32;34218;-57
2022/08/23 12:34:50;;;;;;;7.87;6.10;;;;;;;24.82;63.33;100295.31;5561052;32;33768;-57
2022/08/23 12:38:09;;;;;;;8.63;6.32;;;;;;;24.81;64.61;100297.28;5510770;32;34369;-57
2022/08/23 12:41:16;;;;;;;8.18;6.40;;;;;;;24.78;64.47;100300.00;5566511;32;33703;-57
2022/08/23 12:44:22;;;;;;;7.90;6.43;;;;;;;24.72;63.39;100298.75;5558165;32;33734;-57
2022/08/23 12:47:26;;;;;;;8.38;5.93;;;;;;;24.70;63.12;100298.34;5560323;32;32874;-57
2022/08/23 12:50:35;;;;;;;10.35;7.45;;;;;;;24.76;62.66;100305.84;5566902;32;33655;-57
2022/08/23 12:53:43;;;;;;;7.45;5.90;;;;;;;24.79;61.33;100307.84;5567433;32;33711;-57
2022/08/23 12:56:51;;;;;;;8.70;6.25;;;;;;;24.75;62.21;100307.03;5567676;32;33723;-57
2022/08/23 13:00:12;;;;;;;8.70;6.80;;;;;;;24.83;62.13;100300.44;5567269;32;33665;-57
2022/08/23 13:03:31;;;;;;;7.03;5.43;;;;;;;24.94;61.33;100300.53;5567583;32;34172;-56
2022/08/23 13:06:40;;;;;;;8.85;5.75;;;;;;;25.06;62.04;100296.69;5567276;32;34370;-57
2022/08/23 13:09:44;;;;;;;8.20;6.75;;;;;;;25.17;62.95;100300.34;5566196;32;34397;-57
2022/08/23 13:12:56;;;;;;;10.70;5.78;;;;;;;25.20;60.44;100296.03;5567181;32;33661;-57
2022/08/23 13:16:02;;;;;;;7.95;5.97;;;;;;;25.33;61.25;100296.50;5564494;32;33891;-57
2022/08/23 13:19:37;;;;;;;7.35;6.37;;;;;;;25.38;60.97;100307.12;5567837;32;34362;-57
2022/08/23 13:22:54;;;;;;;;;;;;;;;25.39;65.01;100301.25;5544074;31;34276;-57
2022/08/23 13:26:28;;;;;;;11.38;5.93;;;;;;;25.38;66.10;100305.19;5569872;32;33700;-57
2022/08/23 13:29:30;;;;;;;8.23;6.35;;;;;;;25.37;66.99;100302.81;5570273;32;34457;-57
2022/08/23 13:32:41;;;;;;;11.10;6.53;;;;;;;25.33;66.45;100302.81;5570234;32;34344;-57
2022/08/23 13:35:45;;;;;;;10.50;6.15;;;;;;;25.33;66.32;100302.81;5568951;32;33777;-57
2022/08/23 13:38:50;;;;;;;9.65;6.32;;;;;;;25.23;67.67;100298.81;5555701;32;33831;-57
2022/08/23 13:41:54;;;;;;;8.57;6.28;;;;;;;25.28;66.96;100292.19;5569984;32;33712;-57
2022/08/23 13:44:57;;;;;;;8.13;5.93;;;;;;;25.27;67.25;100287.87;5569908;32;33863;-57
2022/08/23 13:48:05;;;;;;;8.85;6.53;;;;;;;25.30;67.03;100287.87;5569815;32;34472;-56
2022/08/23 13:51:24;;;;;;;12.60;7.50;;;;;;;25.26;66.56;100292.53;5569741;32;34468;-57
2022/08/23 13:54:28;;;;;;;10.52;5.75;;;;;;;25.40;64.70;100291.09;5568498;32;33618;-56
